Time;durP1;ratioP1;P1;durP2;ratioP2;P2;SDS_P1;SDS_P2;PMS_P1;PMS_P2;Temp;Humidity;BMP_temperature;BMP_pressure;BME280_temperature;BME280_humidity;BME280_pressure;Samples;Min_cycle;Max_cycle;Signal;HPM_P1;HPM_P2
2023/10/18 00:01:18;;;;;;;27.77;19.90;;;6.30;99.90;;;;;;5059458;28;20055;-50
2023/10/18 00:03:44;;;;;;;31.57;20.77;;;6.30;99.90;;;;;;5040585;28;20089;-54
2023/10/18 00:06:15;;;;;;;34.30;22.73;;;6.30;99.90;;;;;;5058693;28;20036;-56
2023/10/18 00:08:41;;;;;;;35.10;20.42;;;6.30;99.90;;;;;;5057215;28;20395;-54
2023/10/18 00:11:07;;;;;;;35.90;22.40;;;6.30;99.90;;;;;;5062314;28;20032;-56
2023/10/18 00:13:33;;;;;;;40.00;24.30;;;6.30;99.90;;;;;;5061006;28;20036;-55
2023/10/18 00:16:00;;;;;;;;;;;6.30;99.90;;;;;;5062604;28;20322;-53
2023/10/18 00:18:25;;;;;;;35.78;21.55;;;6.20;99.90;;;;;;5060994;28;19923;-54
2023/10/18 00:21:05;;;;;;;35.17;22.73;;;6.30;99.90;;;;;;5062046;28;20032;-56
2023/10/18 00:23:32;;;;;;;36.53;24.00;;;6.30;99.90;;;;;;5059617;28;20083;-53
2023/10/18 00:26:08;;;;;;;41.78;24.65;;;6.20;99.90;;;;;;5059380;28;20052;-54
2023/10/18 00:28:37;;;;;;;37.33;23.38;;;6.20;99.90;;;;;;5060701;28;20430;-54
2023/10/18 00:31:17;;;;;;;34.08;22.65;;;6.20;99.90;;;;;;5062089;28;20083;-54
2023/10/18 00:33:43;;;;;;;31.92;22.27;;;6.20;99.90;;;;;;5062542;28;20112;-54
2023/10/18 00:36:10;;;;;;;37.50;24.08;;;6.20;99.90;;;;;;5064006;28;20162;-56
2023/10/18 00:38:38;;;;;;;40.30;24.90;;;6.10;99.90;;;;;;5059649;28;20036;-56
2023/10/18 00:41:07;;;;;;;37.90;24.38;;;6.10;99.90;;;;;;5062224;28;20145;-51
2023/10/18 00:43:33;;;;;;;36.08;22.45;;;6.10;99.90;;;;;;5039490;28;20167;-55
2023/10/18 00:45:59;;;;;;;34.35;22.65;;;6.10;99.90;;;;;;5059265;28;20044;-58
2023/10/18 00:48:29;;;;;;;39.35;23.73;;;6.10;99.90;;;;;;5058341;28;20155;-56
2023/10/18 00:50:58;;;;;;;43.95;25.63;;;6.00;99.90;;;;;;5062600;28;20427;-54
2023/10/18 00:53:25;;;;;;;42.67;25.70;;;6.00;99.90;;;;;;5059916;28;20102;-55
2023/10/18 00:55:57;;;;;;;40.42;25.42;;;6.00;99.90;;;;;;5059189;28;20502;-55
2023/10/18 00:58:27;;;;;;;37.00;24.55;;;6.00;99.90;;;;;;5065232;28;20036;-51
2023/10/18 01:00:54;;;;;;;38.03;24.98;;;6.00;99.90;;;;;;5065230;28;20071;-53
2023/10/18 01:03:30;;;;;;;41.53;25.08;;;6.00;99.90;;;;;;5060869;28;20036;-52
2023/10/18 01:06:03;;;;;;;40.23;25.70;;;6.00;99.90;;;;;;5059924;28;20402;-52
2023/10/18 01:08:30;;;;;;;38.65;23.38;;;6.00;99.90;;;;;;5062726;28;20710;-51
2023/10/18 01:11:10;;;;;;;40.13;25.83;;;6.00;99.90;;;;;;5065167;28;20036;-53
2023/10/18 01:13:39;;;;;;;43.55;26.55;;;6.00;99.90;;;;;;5060987;28;20036;-53
2023/10/18 01:16:07;;;;;;;42.72;24.85;;;6.00;99.90;;;;;;5062517;28;20085;-51
2023/10/18 01:18:33;;;;;;;39.05;26.40;;;6.00;99.90;;;;;;5061681;28;20402;-51
2023/10/18 01:21:00;;;;;;;43.63;26.90;;;6.00;99.90;;;;;;5057059;28;20044;-54
2023/10/18 01:23:27;;;;;;;41.92;27.05;;;6.00;99.90;;;;;;5059547;28;20080;-57
2023/10/18 01:25:52;;;;;;;;;;;6.00;99.90;;;;;;5058226;28;20090;-55
2023/10/18 01:28:18;;;;;;;41.97;26.58;;;6.00;99.90;;;;;;5040581;28;19916;-59
2023/10/18 01:30:44;;;;;;;47.67;27.97;;;5.90;99.90;;;;;;5060470;28;20962;-54
2023/10/18 01:33:10;;;;;;;43.73;26.97;;;5.90;99.90;;;;;;5058993;28;20032;-56
2023/10/18 01:35:46;;;;;;;43.33;26.27;;;5.90;99.90;;;;;;5062066;28;20048;-56
2023/10/18 01:38:15;;;;;;;43.70;28.02;;;5.90;99.90;;;;;;5060998;28;20041;-56
2023/10/18 01:40:52;;;;;;;46.20;28.98;;;5.90;99.90;;;;;;5056868;28;20120;-56
2023/10/18 01:43:18;;;;;;;;;;;5.90;99.90;;;;;;5061391;28;20032;-56
2023/10/18 01:45:48;;;;;;;48.92;28.70;;;5.90;99.90;;;;;;5057820;28;19927;-56
2023/10/18 01:48:17;;;;;;;45.58;28.42;;;5.90;99.90;;;;;;5062560;28;20040;-56
2023/10/18 01:50:44;;;;;;;42.17;27.35;;;5.90;99.90;;;;;;5062831;28;20419;-56
2023/10/18 01:53:15;;;;;;;47.05;29.35;;;5.90;99.90;;;;;;5060068;28;20052;-56
2023/10/18 01:55:51;;;;;;;46.83;31.38;;;5.90;99.90;;;;;;5044574;28;20086;-56
2023/10/18 01:58:16;;;;;;;51.42;32.60;;;5.90;99.90;;;;;;5057395;28;20519;-55
2023/10/18 02:00:42;;;;;;;45.70;29.80;;;5.90;99.90;;;;;;5056916;28;20041;-56
2023/10/18 02:03:14;;;;;;;56.07;32.03;;;5.90;99.90;;;;;;5059368;28;20107;-56
2023/10/18 02:05:46;;;;;;;50.08;30.35;;;5.90;99.90;;;;;;5058288;28;20511;-54
2023/10/18 02:08:11;;;;;;;52.25;31.63;;;5.90;99.90;;;;;;5059789;28;20070;-56
2023/10/18 02:10:40;;;;;;;50.87;31.07;;;5.90;99.90;;;;;;5060675;28;20029;-56
2023/10/18 02:13:15;;;;;;;48.42;30.90;;;5.90;99.90;;;;;;5059422;28;20511;-56
2023/10/18 02:15:41;;;;;;;48.83;29.77;;;5.90;99.90;;;;;;5059355;28;20116;-56
2023/10/18 02:18:08;;;;;;;49.85;29.88;;;5.90;99.90;;;;;;5057396;28;20037;-55
2023/10/18 02:20:42;;;;;;;49.90;30.48;;;5.90;99.90;;;;;;5059264;28;20114;-56
2023/10/18 02:23:13;;;;;;;49.67;30.92;;;5.90;99.90;;;;;;5042307;28;20075;-56
2023/10/18 02:28:09;;;;;;;56.60;32.53;;;5.90;99.90;;;;;;5063471;28;20072;-58
2023/10/18 02:30:38;;;;;;;51.85;31.95;;;5.90;99.90;;;;;;5061848;28;20047;-56
2023/10/18 02:33:05;;;;;;;52.97;30.85;;;5.90;99.90;;;;;;5059610;28;20039;-55
2023/10/18 02:35:33;;;;;;;49.95;30.58;;;5.90;99.90;;;;;;5064733;28;20434;-55
2023/10/18 02:38:08;;;;;;;51.15;31.05;;;5.90;99.90;;;;;;5049286;28;20098;-56
2023/10/18 02:40:38;;;;;;;49.45;30.40;;;5.90;99.90;;;;;;5044877;28;20045;-56
2023/10/18 02:43:08;;;;;;;48.88;31.27;;;5.90;99.90;;;;;;5024104;28;20033;-56
2023/10/18 02:45:34;;;;;;;49.70;31.10;;;5.90;99.90;;;;;;5042201;28;20447;-57
2023/10/18 02:48:00;;;;;;;48.33;29.88;;;6.00;99.90;;;;;;5061491;28;20518;-55
2023/10/18 02:50:26;;;;;;;51.33;32.00;;;6.00;99.90;;;;;;5060997;28;20037;-51
2023/10/18 02:52:53;;;;;;;;;;;5.90;99.90;;;;;;5062414;28;20025;-52
2023/10/18 02:55:19;;;;;;;50.28;31.17;;;5.90;99.90;;;;;;5062251;28;19952;-51
2023/10/18 02:57:48;;;;;;;50.70;30.85;;;5.90;99.90;;;;;;5029991;28;20083;-52
2023/10/18 03:00:17;;;;;;;50.40;31.52;;;5.90;99.90;;;;;;5065738;28;20039;-56
2023/10/18 03:02:44;;;;;;;46.60;30.60;;;5.90;99.90;;;;;;5062464;28;20138;-56
2023/10/18 03:05:10;;;;;;;45.20;30.83;;;5.90;99.90;;;;;;5060429;28;20061;-56
2023/10/18 03:07:36;;;;;;;;;;;5.90;99.90;;;;;;5063671;28;20036;-56
2023/10/18 03:10:12;;;;;;;49.00;30.42;;;5.90;99.90;;;;;;5062599;28;19920;-54
2023/10/18 03:12:38;;;;;;;53.67;30.48;;;5.90;99.90;;;;;;5060774;28;20033;-56
2023/10/18 03:15:16;;;;;;;47.90;29.67;;;5.90;99.90;;;;;;5060308;28;20523;-55
2023/10/18 03:17:43;;;;;;;46.92;28.88;;;5.90;99.90;;;;;;5063652;28;20435;-53
2023/10/18 03:20:19;;;;;;;47.67;29.85;;;5.90;99.90;;;;;;5061991;28;20056;-57
2023/10/18 03:22:45;;;;;;;48.40;30.00;;;5.90;99.90;;;;;;5057858;28;20081;-54
2023/10/18 03:25:16;;;;;;;45.17;29.75;;;5.90;99.90;;;;;;5063485;28;20044;-55
2023/10/18 03:27:49;;;;;;;42.95;29.40;;;5.90;99.90;;;;;;5059340;28;20047;-56
2023/10/18 03:30:19;;;;;;;46.97;29.45;;;5.90;99.90;;;;;;5046306;28;20082;-57
2023/10/18 03:32:50;;;;;;;49.10;31.38;;;5.90;99.90;;;;;;5062982;28;20391;-55
2023/10/18 03:35:20;;;;;;;45.75;29.70;;;5.90;99.90;;;;;;5063476;28;20127;-52
2023/10/18 03:37:46;;;;;;;44.97;29.75;;;5.90;99.90;;;;;;5058218;28;20109;-55
2023/10/18 03:40:26;;;;;;;50.28;30.98;;;5.90;99.90;;;;;;5062489;28;20459;-52
2023/10/18 03:42:53;;;;;;;46.13;29.80;;;5.90;99.90;;;;;;5057865;28;20124;-55
2023/10/18 03:45:22;;;;;;;;;;;5.90;99.90;;;;;;5043635;28;20044;-54
2023/10/18 03:47:59;;;;;;;49.70;29.27;;;5.90;99.90;;;;;;5059961;28;20402;-54
2023/10/18 03:50:41;;;;;;;45.83;29.75;;;5.90;99.90;;;;;;5064034;28;20436;-54
2023/10/18 03:53:07;;;;;;;47.30;29.17;;;5.90;99.90;;;;;;5061589;28;20380;-55
2023/10/18 03:55:38;;;;;;;44.33;29.55;;;5.90;99.90;;;;;;5064382;28;20048;-51
2023/10/18 03:58:08;;;;;;;49.35;30.95;;;5.90;99.90;;;;;;5061900;28;20356;-55
2023/10/18 04:00:46;;;;;;;48.38;29.45;;;5.90;99.90;;;;;;5064772;28;20137;-56
2023/10/18 04:03:12;;;;;;;47.40;30.48;;;5.80;99.90;;;;;;5040355;28;20048;-53
2023/10/18 04:05:50;;;;;;;47.30;31.30;;;5.80;99.90;;;;;;5063186;28;20039;-52
2023/10/18 04:08:18;;;;;;;45.05;28.88;;;5.80;99.90;;;;;;5060516;28;20440;-51
2023/10/18 04:10:45;;;;;;;42.10;28.33;;;5.80;99.90;;;;;;5057968;28;20137;-54
2023/10/18 04:13:12;;;;;;;46.45;29.08;;;5.80;99.90;;;;;;5060483;28;20040;-55
2023/10/18 04:15:57;;;;;;;40.83;27.30;;;5.80;99.90;;;;;;5060488;28;20048;-55
2023/10/18 04:18:35;;;;;;;45.15;29.83;;;5.80;99.90;;;;;;5064274;28;20041;-55
2023/10/18 04:21:05;;;;;;;42.85;30.85;;;5.80;99.90;;;;;;5058506;28;20123;-56
2023/10/18 04:23:31;;;;;;;43.58;29.55;;;5.80;99.90;;;;;;5063037;28;20093;-56
2023/10/18 04:26:10;;;;;;;39.75;28.25;;;5.80;99.90;;;;;;5059966;28;20517;-55
2023/10/18 04:28:39;;;;;;;39.33;28.00;;;5.80;99.90;;;;;;5061841;28;20036;-51
2023/10/18 04:31:08;;;;;;;40.92;26.67;;;5.80;99.90;;;;;;5059617;28;20748;-52
2023/10/18 04:33:35;;;;;;;42.10;29.50;;;5.80;99.90;;;;;;5058788;28;20040;-56
2023/10/18 04:36:14;;;;;;;51.13;31.95;;;5.80;99.90;;;;;;5061311;28;20059;-56
2023/10/18 04:38:44;;;;;;;47.30;28.38;;;5.80;99.90;;;;;;5039013;28;20037;-55
2023/10/18 04:41:23;;;;;;;45.33;29.58;;;5.80;99.90;;;;;;5060748;28;20032;-52
2023/10/18 04:43:57;;;;;;;45.80;30.30;;;5.80;99.90;;;;;;5040953;28;20479;-56
2023/10/18 04:46:26;;;;;;;45.95;29.67;;;5.80;99.90;;;;;;5060035;28;20048;-55
2023/10/18 04:54:08;;;;;;;45.35;30.05;;;5.80;99.90;;;;;;5062360;28;20491;-54
2023/10/18 04:56:37;;;;;;;39.70;28.60;;;5.80;99.90;;;;;;5061174;28;20060;-56
2023/10/18 04:59:10;;;;;;;45.20;29.77;;;5.80;99.90;;;;;;5057466;28;20395;-55
2023/10/18 05:01:56;;;;;;;43.33;27.70;;;5.80;99.90;;;;;;5044063;28;20518;-52
2023/10/18 05:04:29;;;;;;;41.33;27.77;;;5.80;99.90;;;;;;5041209;28;20040;-55
2023/10/18 05:06:57;;;;;;;40.25;26.85;;;5.70;99.90;;;;;;5061249;28;20097;-55
2023/10/18 05:09:41;;;;;;;46.05;29.10;;;5.80;99.90;;;;;;5059798;28;20105;-54
2023/10/18 05:12:30;;;;;;;42.05;27.70;;;5.70;99.90;;;;;;5056830;28;20201;-55
2023/10/18 05:17:26;;;;;;;40.78;27.48;;;5.70;99.90;;;;;;5058688;28;20518;-55
2023/10/18 05:19:56;;;;;;;38.28;26.65;;;5.70;99.90;;;;;;5061766;28;20040;-55
2023/10/18 05:22:25;;;;;;;41.50;28.10;;;5.70;99.90;;;;;;5057063;28;20043;-56
2023/10/18 05:36:29;;;;;;;34.97;25.10;;;5.60;99.90;;;;;;5061880;28;20256;-54
2023/10/18 05:41:45;;;;;;;;;;;5.60;99.90;;;;;;5060668;28;20412;-51
2023/10/18 05:44:15;;;;;;;36.47;25.67;;;5.60;99.90;;;;;;5025355;28;20338;-51
2023/10/18 05:46:41;;;;;;;37.97;25.05;;;5.60;99.90;;;;;;5058257;28;20052;-55
2023/10/18 05:49:16;;;;;;;37.60;25.83;;;5.60;99.90;;;;;;5058956;28;21488;-52
2023/10/18 05:54:29;;;;;;;35.50;26.15;;;5.60;99.90;;;;;;5058962;28;20500;-52
2023/10/18 05:56:56;;;;;;;36.57;25.20;;;5.70;99.90;;;;;;5060004;28;20075;-55
2023/10/18 06:02:01;;;;;;;34.10;25.15;;;5.70;99.90;;;;;;5038687;28;20041;-58
2023/10/18 06:04:37;;;;;;;44.58;25.85;;;5.70;99.90;;;;;;5062192;28;20283;-56
2023/10/18 06:07:10;;;;;;;38.63;24.20;;;5.70;99.90;;;;;;5043659;28;20044;-56
2023/10/18 06:09:58;;;;;;;34.45;24.25;;;5.70;99.90;;;;;;5058122;28;20043;-54
2023/10/18 06:12:27;;;;;;;37.50;24.75;;;5.70;99.90;;;;;;5061025;28;20063;-56
2023/10/18 06:14:54;;;;;;;40.10;24.75;;;5.70;99.90;;;;;;5062524;28;20421;-56
2023/10/18 06:17:22;;;;;;;;;;;5.70;99.90;;;;;;5062558;28;20041;-55
2023/10/18 06:19:50;;;;;;;33.05;22.55;;;5.70;99.90;;;;;;5065984;28;19920;-54
2023/10/18 06:23:07;;;;;;;36.85;24.98;;;5.70;99.90;;;;;;5062402;28;20102;-55
2023/10/18 06:25:03;;;;;;;37.20;25.25;;;5.70;99.90;;;;;;5031944;28;20072;-56
2023/10/18 06:27:38;;;;;;;35.50;24.67;;;5.70;99.90;;;;;;5059284;28;20094;-57
2023/10/18 06:30:14;;;;;;;36.38;24.70;;;5.70;99.90;;;;;;5032119;28;20131;-56
2023/10/18 06:32:44;;;;;;;34.00;23.90;;;5.70;99.90;;;;;;5056356;28;20091;-56
2023/10/18 06:35:15;;;;;;;31.70;23.10;;;5.70;99.90;;;;;;5056167;28;20394;-56
2023/10/18 06:37:41;;;;;;;30.55;23.42;;;5.70;99.90;;;;;;5040363;28;20113;-56
2023/10/18 06:40:21;;;;;;;29.77;22.00;;;5.80;99.90;;;;;;5039234;28;20044;-56
2023/10/18 06:42:48;;;;;;;35.05;23.65;;;5.80;99.90;;;;;;5064232;28;20041;-57
2023/10/18 06:45:24;;;;;;;;;;;5.80;99.90;;;;;;5063540;28;20041;-55
2023/10/18 06:47:54;;;;;;;30.48;22.17;;;5.80;99.90;;;;;;5048651;28;19942;-56
2023/10/18 06:50:26;;;;;;;31.77;23.42;;;5.80;99.90;;;;;;5060428;28;20079;-55
2023/10/18 06:52:56;;;;;;;31.65;21.90;;;5.80;99.90;;;;;;5041474;28;20120;-56
2023/10/18 07:01:03;;;;;;;27.45;20.73;;;6.00;99.90;;;;;;5051847;28;20044;-56
2023/10/18 07:03:28;;;;;;;33.72;23.25;;;6.00;99.90;;;;;;5057930;28;20048;-57
2023/10/18 07:05:56;;;;;;;33.63;22.67;;;6.10;99.90;;;;;;5058057;28;20044;-56
2023/10/18 07:08:34;;;;;;;28.50;21.73;;;6.10;99.90;;;;;;5063280;28;20510;-57
2023/10/18 07:11:08;;;;;;;31.70;20.95;;;6.20;99.90;;;;;;5064154;28;20522;-57
2023/10/18 07:13:34;;;;;;;43.53;21.42;;;6.20;99.90;;;;;;5062360;28;20040;-56
2023/10/18 07:16:15;;;;;;;30.85;20.30;;;6.30;99.90;;;;;;5059514;28;20048;-58
2023/10/18 07:18:45;;;;;;;28.98;20.60;;;6.40;99.90;;;;;;5064169;28;20036;-59
2023/10/18 07:21:18;;;;;;;25.80;19.00;;;6.40;99.90;;;;;;5064710;28;20040;-59
2023/10/18 07:23:53;;;;;;;25.65;18.55;;;6.50;99.90;;;;;;5061606;28;20163;-58
2023/10/18 07:26:21;;;;;;;27.05;20.73;;;6.50;99.90;;;;;;5045561;28;20137;-58
2023/10/18 07:28:47;;;;;;;29.77;21.52;;;6.50;99.90;;;;;;5064160;28;20056;-58
2023/10/18 07:31:12;;;;;;;52.23;22.00;;;6.60;99.90;;;;;;5065600;28;20032;-59
2023/10/18 07:33:42;;;;;;;36.65;19.95;;;6.60;99.90;;;;;;5063464;28;20543;-58
2023/10/18 07:36:08;;;;;;;30.42;21.10;;;6.70;99.90;;;;;;5059718;28;20036;-58
2023/10/18 07:38:37;;;;;;;27.35;19.35;;;6.60;99.90;;;;;;5064187;28;20037;-58
2023/10/18 07:41:04;;;;;;;28.65;20.05;;;6.60;99.90;;;;;;5061951;28;20124;-58
2023/10/18 07:43:32;;;;;;;28.67;20.52;;;6.60;99.90;;;;;;5060170;28;20722;-58
2023/10/18 07:45:58;;;;;;;22.88;17.52;;;6.60;99.90;;;;;;5061909;28;20045;-59
2023/10/18 07:48:24;;;;;;;;;;;6.70;99.90;;;;;;5060127;28;20036;-58
2023/10/18 07:50:50;;;;;;;27.13;19.83;;;6.70;99.90;;;;;;5061934;28;20402;-58
2023/10/18 07:53:20;;;;;;;27.80;18.97;;;6.70;99.90;;;;;;5060668;28;22203;-58
2023/10/18 07:55:57;;;;;;;26.52;17.77;;;6.70;99.90;;;;;;5063973;28;20711;-56
2023/10/18 07:58:24;;;;;;;27.35;18.85;;;6.80;99.90;;;;;;5065814;28;20040;-57
2023/10/18 08:03:29;;;;;;;24.00;16.92;;;6.90;99.90;;;;;;5064502;28;20045;-54
2023/10/18 08:05:56;;;;;;;29.58;18.60;;;7.00;99.90;;;;;;5065359;28;20037;-53
2023/10/18 08:08:25;;;;;;;24.60;17.30;;;7.00;99.90;;;;;;5046047;28;20487;-55
2023/10/18 08:10:54;;;;;;;22.13;17.45;;;7.10;99.90;;;;;;5063401;28;20133;-55
2023/10/18 08:13:26;;;;;;;26.55;19.10;;;7.20;99.90;;;;;;5048543;28;20039;-56
2023/10/18 08:16:01;;;;;;;24.02;17.80;;;7.20;99.90;;;;;;5058783;28;20045;-53
2023/10/18 08:18:42;;;;;;;21.85;16.52;;;7.20;99.90;;;;;;5057787;28;20041;-55
2023/10/18 08:23:56;;;;;;;22.90;15.20;;;7.20;99.90;;;;;;5057740;28;20248;-58
2023/10/18 08:26:29;;;;;;;24.40;16.38;;;7.30;99.90;;;;;;5061572;28;20040;-62
2023/10/18 08:28:54;;;;;;;20.52;16.30;;;7.40;99.90;;;;;;5056841;28;20456;-58
2023/10/18 08:31:32;;;;;;;23.80;17.55;;;7.40;99.90;;;;;;5060527;28;20119;-56
2023/10/18 08:33:58;;;;;;;20.13;14.18;;;7.50;99.90;;;;;;5062159;28;20032;-56
2023/10/18 08:36:30;;;;;;;22.40;17.02;;;7.50;99.90;;;;;;5059853;28;20072;-55
2023/10/18 08:38:57;;;;;;;23.20;15.60;;;7.60;99.90;;;;;;5063866;28;20667;-54
2023/10/18 08:41:25;;;;;;;;;;;7.60;99.90;;;;;;5061830;28;20040;-53
2023/10/18 08:43:58;;;;;;;19.13;14.85;;;7.60;99.90;;;;;;5065272;28;19973;-52
2023/10/18 08:46:26;;;;;;;18.25;14.38;;;7.70;99.90;;;;;;5062449;28;20080;-55
2023/10/18 08:48:54;;;;;;;18.52;14.77;;;7.70;99.90;;;;;;5038741;28;20048;-56
2023/10/18 08:51:23;;;;;;;20.60;15.10;;;7.80;99.90;;;;;;5058305;28;20075;-56
2023/10/18 08:53:53;;;;;;;20.02;15.75;;;7.90;99.90;;;;;;5050883;28;20442;-57
2023/10/18 08:56:29;;;;;;;19.02;15.13;;;7.90;99.90;;;;;;5057084;28;20446;-53
2023/10/18 08:58:56;;;;;;;21.05;15.23;;;8.00;99.90;;;;;;5040952;28;20063;-54
2023/10/18 09:01:24;;;;;;;18.85;14.13;;;8.00;99.90;;;;;;5060002;28;20068;-55
2023/10/18 09:03:50;;;;;;;18.75;15.07;;;8.10;99.90;;;;;;5054927;28;20233;-57
2023/10/18 09:06:22;;;;;;;18.53;13.87;;;8.10;99.90;;;;;;5056929;28;20122;-58
2023/10/18 09:09:05;;;;;;;18.40;14.20;;;8.20;99.90;;;;;;5056490;28;20090;-57
2023/10/18 09:11:31;;;;;;;15.43;13.50;;;8.20;99.90;;;;;;5059418;28;20036;-57
2023/10/18 09:14:07;;;;;;;16.90;13.10;;;8.30;99.90;;;;;;5057203;28;20127;-57
2023/10/18 09:16:37;;;;;;;17.23;13.68;;;8.40;99.90;;;;;;5054541;28;20137;-57
2023/10/18 09:19:04;;;;;;;16.80;14.93;;;8.50;99.90;;;;;;5060584;28;20033;-57
2023/10/18 09:21:36;;;;;;;18.27;13.77;;;8.60;99.90;;;;;;5055666;28;20039;-55
2023/10/18 09:24:03;;;;;;;21.05;13.40;;;8.70;99.90;;;;;;5058049;28;20070;-57
2023/10/18 09:26:40;;;;;;;21.33;13.48;;;8.80;99.90;;;;;;5055955;28;20047;-57
2023/10/18 09:29:10;;;;;;;22.58;14.10;;;8.90;99.90;;;;;;5035467;28;20033;-56
2023/10/18 09:32:02;;;;;;;18.90;13.38;;;9.10;99.90;;;;;;5054597;28;20048;-58
2023/10/18 09:34:33;;;;;;;16.08;13.30;;;9.20;99.90;;;;;;5035521;28;20195;-54
2023/10/18 09:36:59;;;;;;;15.60;12.30;;;9.30;99.90;;;;;;5051514;28;20048;-57
2023/10/18 09:39:38;;;;;;;14.52;11.73;;;9.40;99.90;;;;;;5059276;28;20043;-57
2023/10/18 09:42:15;;;;;;;19.33;13.48;;;9.50;99.90;;;;;;5052501;28;20113;-57
2023/10/18 09:44:41;;;;;;;20.05;12.32;;;9.60;99.90;;;;;;5058257;28;20325;-56
2023/10/18 09:47:08;;;;;;;15.82;12.10;;;9.60;99.90;;;;;;5060274;28;20090;-58
2023/10/18 09:49:33;;;;;;;;;;;9.70;99.90;;;;;;5054158;28;20190;-52
2023/10/18 09:52:03;;;;;;;15.75;11.68;;;9.70;99.90;;;;;;5057523;28;19964;-55
2023/10/18 09:54:36;;;;;;;14.70;11.85;;;9.70;99.90;;;;;;5054744;28;20052;-54
2023/10/18 09:57:02;;;;;;;14.25;11.38;;;9.80;99.90;;;;;;5058014;28;20040;-56
2023/10/18 09:59:37;;;;;;;;;;;9.80;99.90;;;;;;5042045;28;20064;-55
2023/10/18 10:02:15;;;;;;;12.65;11.35;;;9.80;99.90;;;;;;5058121;28;19946;-56
2023/10/18 10:04:43;;;;;;;14.20;11.45;;;9.90;99.90;;;;;;5060101;28;20129;-55
2023/10/18 10:07:37;;;;;;;15.63;11.00;;;9.90;99.90;;;;;;5059579;28;20483;-56
2023/10/18 10:10:17;;;;;;;17.23;11.93;;;9.90;99.90;;;;;;5042211;28;20513;-58
2023/10/18 10:12:44;;;;;;;15.52;11.07;;;9.90;99.90;;;;;;5044801;28;20123;-57
2023/10/18 10:15:17;;;;;;;22.55;11.25;;;9.90;99.90;;;;;;5060213;28;20044;-58
2023/10/18 10:17:56;;;;;;;13.52;11.02;;;9.90;99.90;;;;;;5058216;28;20044;-56
2023/10/18 10:20:22;;;;;;;14.40;11.13;;;9.90;99.90;;;;;;5059492;28;20066;-57
2023/10/18 10:22:50;;;;;;;13.20;11.20;;;10.00;99.90;;;;;;5045753;28;20072;-57
2023/10/18 10:25:30;;;;;;;13.07;10.20;;;10.00;99.90;;;;;;5056705;28;20312;-57
2023/10/18 10:27:59;;;;;;;18.00;11.05;;;10.10;99.90;;;;;;5053639;28;20040;-55
2023/10/18 10:30:37;;;;;;;16.17;11.25;;;10.20;99.90;;;;;;5040967;28;20060;-57
2023/10/18 10:33:05;;;;;;;13.85;10.45;;;10.30;99.90;;;;;;5058170;28;20094;-57
2023/10/18 10:35:35;;;;;;;13.27;10.77;;;10.30;99.90;;;;;;5038654;28;20047;-55
2023/10/18 10:38:01;;;;;;;11.73;9.20;;;10.40;99.90;;;;;;5056191;28;20128;-58
2023/10/18 10:43:08;;;;;;;12.82;9.73;;;10.50;99.90;;;;;;5056958;28;20131;-58
2023/10/18 10:45:43;;;;;;;13.63;10.40;;;10.50;99.90;;;;;;5057003;28;20442;-56
2023/10/18 10:48:18;;;;;;;12.23;10.35;;;10.60;99.90;;;;;;5056920;28;20064;-55
2023/10/18 10:50:57;;;;;;;10.73;8.85;;;10.60;99.90;;;;;;5057081;28;20044;-55
2023/10/18 10:53:57;;;;;;;15.45;9.02;;;10.60;99.90;;;;;;5062647;28;20078;-57
2023/10/18 10:56:29;;;;;;;14.10;9.68;;;10.60;99.90;;;;;;5056097;28;20051;-56
2023/10/18 11:01:39;;;;;;;13.05;10.13;;;10.70;99.90;;;;;;5058999;28;20527;-58
2023/10/18 11:04:14;;;;;;;11.93;9.93;;;10.70;99.90;;;;;;5062117;28;20851;-57
2023/10/18 11:06:44;;;;;;;13.50;10.35;;;10.80;99.90;;;;;;5062135;28;20033;-57
2023/10/18 11:09:15;;;;;;;11.52;8.85;;;10.80;99.90;;;;;;5062086;28;20087;-56
2023/10/18 11:11:45;;;;;;;12.77;9.80;;;10.80;99.90;;;;;;5059403;28;20029;-59
2023/10/18 11:14:18;;;;;;;13.73;10.70;;;10.80;99.90;;;;;;5060884;28;20044;-58
2023/10/18 11:16:56;;;;;;;12.35;9.73;;;10.90;99.90;;;;;;5049338;28;20392;-56
2023/10/18 11:19:28;;;;;;;14.23;9.77;;;10.90;99.90;;;;;;5064667;28;20119;-59
2023/10/18 11:21:54;;;;;;;13.20;9.98;;;11.00;99.90;;;;;;5060232;28;20037;-58
2023/10/18 11:24:21;;;;;;;;;;;11.00;99.90;;;;;;5060236;28;20297;-57
2023/10/18 11:26:50;;;;;;;25.15;9.82;;;11.10;99.90;;;;;;5058843;28;19971;-55
2023/10/18 11:29:19;;;;;;;17.02;10.52;;;11.10;99.90;;;;;;5059709;28;20044;-56
2023/10/18 11:31:46;;;;;;;12.70;9.85;;;11.10;99.90;;;;;;5056548;28;20035;-56
2023/10/18 11:34:14;;;;;;;;;;;11.20;99.90;;;;;;5060191;28;20040;-58
2023/10/18 11:36:42;;;;;;;11.05;9.00;;;11.20;99.90;;;;;;5058100;28;20296;-58
2023/10/18 11:41:44;;;;;;;12.95;9.00;;;11.10;99.90;;;;;;5054487;28;20080;-57
2023/10/18 11:44:14;;;;;;;15.27;9.68;;;11.20;99.90;;;;;;5061151;28;20044;-58
2023/10/18 11:46:58;;;;;;;11.93;8.65;;;11.20;99.90;;;;;;5059237;28;20031;-58
2023/10/18 11:49:40;;;;;;;12.02;9.27;;;11.20;99.90;;;;;;5060627;28;20071;-59
2023/10/18 11:52:12;;;;;;;18.60;9.57;;;11.20;99.90;;;;;;5062226;28;20626;-57
2023/10/18 11:54:39;;;;;;;11.02;8.88;;;11.20;99.90;;;;;;5048985;28;20097;-57
2023/10/18 11:57:26;;;;;;;12.10;9.65;;;11.20;99.90;;;;;;5059704;28;20560;-57
2023/10/18 12:02:43;;;;;;;10.57;8.20;;;11.30;99.90;;;;;;5060278;28;20119;-58
2023/10/18 12:05:10;;;;;;;12.73;8.27;;;11.40;99.90;;;;;;5063969;28;20511;-57
2023/10/18 12:07:44;;;;;;;14.18;8.07;;;11.40;99.90;;;;;;5053590;28;20079;-56
2023/10/18 12:10:16;;;;;;;9.65;8.52;;;11.40;99.90;;;;;;5060302;28;20071;-56
2023/10/18 12:12:42;;;;;;;11.35;8.30;;;11.50;99.90;;;;;;5026129;28;20414;-56
2023/10/18 12:15:08;;;;;;;14.45;7.88;;;11.50;99.90;;;;;;5042818;28;20064;-57
2023/10/18 12:17:34;;;;;;;;;;;11.50;99.90;;;;;;5033684;28;20044;-54
2023/10/18 12:20:00;;;;;;;11.13;7.90;;;11.50;99.90;;;;;;5041442;28;19971;-55
2023/10/18 12:22:25;;;;;;;13.93;8.40;;;11.50;99.90;;;;;;5056712;28;20036;-58
2023/10/18 12:24:51;;;;;;;8.88;7.97;;;11.60;99.90;;;;;;5058435;28;20378;-56
2023/10/18 12:27:33;;;;;;;11.18;7.65;;;11.60;99.90;;;;;;5025826;28;20091;-56
2023/10/18 12:30:09;;;;;;;12.27;7.70;;;11.70;99.90;;;;;;5058260;28;20075;-57
2023/10/18 12:32:42;;;;;;;9.80;8.18;;;11.80;99.90;;;;;;5058282;28;20033;-58
2023/10/18 12:35:15;;;;;;;10.05;7.93;;;11.80;99.90;;;;;;5037475;28;20036;-56
2023/10/18 12:37:41;;;;;;;12.05;7.38;;;12.00;99.90;;;;;;5038512;28;20049;-58
2023/10/18 12:40:30;;;;;;;15.73;7.80;;;12.10;99.90;;;;;;5028597;28;20040;-58
2023/10/18 12:43:05;;;;;;;15.30;8.27;;;12.30;99.90;;;;;;5041704;28;20029;-58
2023/10/18 12:45:41;;;;;;;13.90;8.05;;;12.30;99.90;;;;;;5043194;28;20115;-58
2023/10/18 12:48:10;;;;;;;;;;;12.40;99.90;;;;;;5057086;28;20163;-57
2023/10/18 12:50:36;;;;;;;7.63;6.85;;;12.30;99.90;;;;;;5037601;28;19916;-58
2023/10/18 12:53:30;;;;;;;10.07;7.88;;;12.40;99.90;;;;;;5060926;28;20032;-56
2023/10/18 12:55:57;;;;;;;8.43;7.53;;;12.50;99.90;;;;;;5046546;28;20041;-57
2023/10/18 12:58:30;;;;;;;8.60;7.70;;;12.60;99.90;;;;;;5058007;28;20048;-56
2023/10/18 13:01:05;;;;;;;9.57;7.93;;;12.60;99.90;;;;;;5039210;28;20352;-57
2023/10/18 13:03:37;;;;;;;11.30;7.13;;;12.60;99.90;;;;;;5038323;28;20108;-58
2023/10/18 13:06:08;;;;;;;8.80;7.18;;;12.60;99.90;;;;;;5040125;28;20090;-58
2023/10/18 13:08:37;;;;;;;14.75;8.00;;;12.50;99.90;;;;;;5042400;28;20036;-56
2023/10/18 13:13:30;;;;;;;12.75;11.52;;;12.30;99.90;;;;;;5042206;28;20131;-57
2023/10/18 13:15:59;;;;;;;8.00;7.15;;;12.30;99.90;;;;;;5036908;28;20615;-58
2023/10/18 13:18:25;;;;;;;11.38;7.95;;;12.20;99.90;;;;;;5055528;28;20045;-57
2023/10/18 13:20:54;;;;;;;9.18;7.43;;;12.20;99.90;;;;;;5039140;28;20401;-58
2023/10/18 13:23:20;;;;;;;9.73;8.05;;;12.20;99.90;;;;;;5024854;28;20041;-58
2023/10/18 13:25:52;;;;;;;9.32;8.05;;;12.10;99.90;;;;;;5056987;28;20539;-60
2023/10/18 13:28:24;;;;;;;14.00;8.18;;;12.20;99.90;;;;;;5059061;28;20568;-59
2023/10/18 13:30:51;;;;;;;10.05;7.43;;;12.30;99.90;;;;;;5038835;28;20029;-58
2023/10/18 13:33:18;;;;;;;18.90;8.55;;;12.40;99.90;;;;;;5058051;28;20339;-58
2023/10/18 13:35:49;;;;;;;33.20;9.15;;;12.40;99.90;;;;;;5043480;28;20036;-58
2023/10/18 13:38:15;;;;;;;8.38;7.43;;;12.30;99.90;;;;;;5039617;28;20044;-57
2023/10/18 13:40:43;;;;;;;;;;;12.30;99.90;;;;;;5059111;28;20063;-56
2023/10/18 13:43:09;;;;;;;16.83;8.68;;;12.10;99.90;;;;;;5038406;28;20461;-57
2023/10/18 13:45:37;;;;;;;9.93;7.95;;;12.20;99.90;;;;;;5038539;28;20102;-57
2023/10/18 13:48:04;;;;;;;18.08;8.77;;;12.20;99.90;;;;;;5024180;28;20044;-57
2023/10/18 13:50:35;;;;;;;15.13;9.23;;;12.10;99.90;;;;;;5026542;28;20036;-56
2023/10/18 13:53:01;;;;;;;8.73;7.47;;;12.00;99.90;;;;;;5053469;28;20056;-57
2023/10/18 13:55:27;;;;;;;8.57;7.57;;;12.10;99.90;;;;;;5038336;28;20064;-56